createdAt,value
2023-03-05T00:00:14.402Z,30.32
2023-03-05T00:05:11.657Z,24.639999999999997
2023-03-05T00:10:07.898Z,21
2023-03-05T00:15:06.197Z,19.080000000000002
2023-03-05T00:20:02.653Z,23.52
2023-03-05T00:24:58.714Z,22.82
2023-03-05T00:29:54.997Z,18.720000000000002
2023-03-05T00:34:51.245Z,15.76
2023-03-05T00:39:47.546Z,17.54
2023-03-05T00:44:43.736Z,15.959999999999999
2023-03-05T00:49:39.969Z,15.38
2023-03-05T00:54:37.278Z,15.059999999999999
2023-03-05T00:59:33.563Z,13.080000000000002
2023-03-05T01:04:29.726Z,13.780000000000001
2023-03-05T01:09:26.019Z,18.22
2023-03-05T01:14:22.295Z,14.940000000000001
2023-03-05T01:19:18.680Z,14.6
2023-03-05T01:24:14.795Z,16.119999999999997
2023-03-05T01:34:15.285Z,11.739999999999998
2023-03-05T01:39:11.550Z,12.6
2023-03-05T01:44:12.837Z,10.3
2023-03-05T01:49:12.051Z,9.84
2023-03-05T01:54:09.304Z,11.84
2023-03-05T01:59:05.731Z,7.38
2023-03-05T02:04:01.864Z,10.14
2023-03-05T02:08:59.099Z,13.059999999999999
2023-03-05T02:13:56.303Z,12.86
2023-03-05T02:18:53.575Z,9.860000000000001
2023-03-05T02:23:50.852Z,19.759999999999998
2023-03-05T02:28:50.096Z,17.44
2023-03-05T02:33:47.325Z,20.56
2023-03-05T02:38:43.656Z,19.02
2023-03-05T02:43:38.889Z,13.260000000000002
2023-03-05T02:48:35.116Z,9.14
2023-03-05T02:53:31.402Z,8.620000000000001
2023-03-05T02:58:27.650Z,12.98
2023-03-05T03:03:24.007Z,9.06
2023-03-05T03:08:20.186Z,10.92
2023-03-05T03:13:16.433Z,9.56
2023-03-05T03:18:12.693Z,9.46
2023-03-05T03:23:08.952Z,8.66
2023-03-05T03:28:05.246Z,7.359999999999999
2023-03-05T03:33:01.477Z,11.84
2023-03-05T03:37:57.764Z,10.180000000000001
2023-03-05T03:42:54.008Z,13.319999999999999
2023-03-05T03:47:50.234Z,8.84
2023-03-05T03:52:46.536Z,9.5
2023-03-05T03:57:42.784Z,9.08
2023-03-05T04:02:39.137Z,10.4
2023-03-05T04:07:35.273Z,11.520000000000001
2023-03-05T04:12:31.715Z,8.940000000000001
2023-03-05T04:17:27.818Z,10.4
2023-03-05T04:22:24.098Z,14.419999999999998
2023-03-05T04:27:20.338Z,9.620000000000001
2023-03-05T04:32:16.629Z,8.8
2023-03-05T04:37:12.864Z,9.379999999999999
2023-03-05T04:42:09.120Z,8.580000000000002
2023-03-05T04:47:05.377Z,9.46
2023-03-05T04:52:01.584Z,13.74
2023-03-05T04:56:57.897Z,15.1
2023-03-05T05:01:54.203Z,9.8
2023-03-05T05:06:50.429Z,14.040000000000001
2023-03-05T05:11:46.662Z,10.68
2023-03-05T05:16:42.898Z,9.219999999999999
2023-03-05T05:21:39.159Z,8.5
2023-03-05T05:26:36.412Z,9.7
2023-03-05T05:31:32.784Z,11.139999999999999
2023-03-05T05:36:27.977Z,14.24
2023-03-05T05:41:24.258Z,20.3
2023-03-05T05:46:21.691Z,19.06
2023-03-05T05:51:17.732Z,9.2
2023-03-05T05:56:15.004Z,9.080000000000002
2023-03-05T06:01:12.256Z,11.379999999999999
2023-03-05T06:06:09.489Z,9.5
2023-03-05T06:11:05.788Z,13.679999999999998
2023-03-05T06:16:03.038Z,12.559999999999999
2023-03-05T06:21:00.308Z,16.919999999999998
2023-03-05T06:25:58.557Z,15.940000000000001
2023-03-05T06:30:59.797Z,13.940000000000001
2023-03-05T06:35:56.066Z,32.120000000000005
2023-03-05T06:46:02.611Z,18.939999999999998
2023-03-05T06:50:57.832Z,13.979999999999999
2023-03-05T06:55:54.077Z,13.26
2023-03-05T07:00:50.303Z,13.5
2023-03-05T07:05:46.586Z,15.419999999999998
2023-03-05T07:10:43.829Z,18.18
2023-03-05T07:15:41.204Z,40.620000000000005
2023-03-05T07:20:37.351Z,20.64
2023-03-05T07:25:35.571Z,14.38
2023-03-05T07:30:31.859Z,19.2
2023-03-05T07:35:28.208Z,12.4
2023-03-05T07:40:24.401Z,13.36
2023-03-05T07:45:19.633Z,19.639999999999997
2023-03-05T07:50:15.885Z,21.759999999999998
2023-03-05T07:55:12.153Z,13.180000000000001
2023-03-05T08:00:09.420Z,15.080000000000002
2023-03-05T08:05:05.662Z,17.64
2023-03-05T08:10:01.894Z,17.02
2023-03-05T08:14:58.212Z,8.68
2023-03-05T08:19:54.445Z,14.76
2023-03-05T08:24:50.713Z,14.379999999999999
2023-03-05T08:29:46.973Z,12.7
2023-03-05T08:34:43.236Z,17.6
2023-03-05T08:39:39.506Z,15.040000000000001
2023-03-05T08:44:35.783Z,14.84
2023-03-05T08:49:32.110Z,18.54
2023-03-05T08:54:29.334Z,17.54
2023-03-05T08:59:25.528Z,19.740000000000002
2023-03-05T09:04:21.879Z,14.5
2023-03-05T09:09:18.150Z,15.439999999999998
2023-03-05T09:14:14.422Z,11.6
2023-03-05T09:19:10.656Z,8.38
2023-03-05T09:24:06.795Z,8.4
2023-03-05T09:29:03.092Z,10.26
2023-03-05T09:33:59.347Z,11.08
2023-03-05T09:38:55.651Z,12.919999999999998
2023-03-05T09:44:01.807Z,11.420000000000002
2023-03-05T09:49:08.058Z,9.66
2023-03-05T09:54:12.332Z,12.580000000000002
2023-03-05T09:59:17.565Z,15.16
2023-03-05T10:04:23.804Z,12.58
2023-03-05T10:09:31.048Z,8.16
2023-03-05T10:14:29.280Z,9.16
2023-03-05T10:19:41.493Z,18.060000000000002
2023-03-05T10:24:49.700Z,9.02
2023-03-05T10:30:00.929Z,12.34
2023-03-05T10:35:16.176Z,10.219999999999999
2023-03-05T10:40:26.368Z,18.44
2023-03-05T10:45:28.632Z,17.880000000000003
2023-03-05T10:50:27.871Z,14.279999999999998
2023-03-05T10:55:24.105Z,9.379999999999999
2023-03-05T11:00:22.380Z,24.160000000000004
2023-03-05T11:05:23.642Z,11.28
2023-03-05T11:10:28.862Z,14.579999999999998
2023-03-05T11:15:30.126Z,14.7
2023-03-05T11:20:31.355Z,8.02
2023-03-05T11:25:52.558Z,19.080000000000002
2023-03-05T11:30:56.819Z,13.979999999999999
2023-03-05T11:36:09.013Z,13.520000000000001
2023-03-05T11:41:05.238Z,14.040000000000001
2023-03-05T11:46:02.610Z,7.8
2023-03-05T11:50:59.740Z,7.779999999999999
2023-03-05T11:56:01.086Z,14.14
2023-03-05T12:01:00.271Z,11.74
2023-03-05T12:05:58.560Z,14.24
2023-03-05T12:10:54.799Z,10.32
2023-03-05T12:16:04.048Z,17.3
2023-03-05T12:21:06.302Z,13.12
2023-03-05T12:26:04.522Z,10.02
2023-03-05T12:31:11.829Z,17.98
2023-03-05T12:36:18.989Z,9.319999999999999
2023-03-05T12:41:27.872Z,7.08
2023-03-05T12:46:34.518Z,8.76
2023-03-05T12:56:47.926Z,9.2
2023-03-05T13:01:57.149Z,9.66
2023-03-05T13:07:00.408Z,7.039999999999999
2023-03-05T13:11:56.692Z,7.9
2023-03-05T13:16:58.879Z,5.5
2023-03-05T13:22:01.126Z,8.22
2023-03-05T13:27:01.401Z,13.8
2023-03-05T13:31:59.833Z,15.760000000000002
2023-03-05T13:36:58.862Z,7.640000000000001
2023-03-05T13:41:58.169Z,16.2
2023-03-05T13:47:07.360Z,9.5
2023-03-05T13:52:12.650Z,8.079999999999998
2023-03-05T13:57:22.809Z,10.979999999999999
2023-03-05T14:02:24.086Z,20.42
2023-03-05T14:07:30.311Z,27.639999999999997
2023-03-05T14:12:34.566Z,17.32
2023-03-05T14:17:44.744Z,16.06
2023-03-05T14:22:51.023Z,16.580000000000002
2023-03-05T14:27:52.241Z,18.28
2023-03-05T14:32:54.511Z,29.26
2023-03-05T14:37:56.724Z,30.060000000000002
2023-03-05T14:43:00.975Z,30.78000000000001
2023-03-05T14:48:02.210Z,13.180000000000001
2023-03-05T14:53:06.441Z,21
2023-03-05T14:58:10.709Z,19.14
2023-03-05T15:03:10.944Z,16.880000000000003
2023-03-05T15:08:13.346Z,36.1
2023-03-05T15:13:13.422Z,28
2023-03-05T15:18:15.702Z,18.4
2023-03-05T15:28:25.145Z,23.38
2023-03-05T15:33:25.464Z,12.86
2023-03-05T15:38:25.697Z,27.380000000000003
2023-03-05T15:43:25.941Z,20.22
2023-03-05T15:48:26.187Z,18.72
2023-03-05T15:53:26.419Z,41.82
2023-03-05T15:58:26.695Z,26.300000000000004
2023-03-05T16:03:26.969Z,21.4
2023-03-05T16:08:28.161Z,31.340000000000003
2023-03-05T16:13:32.409Z,25.98
2023-03-05T16:18:34.702Z,26.580000000000002
2023-03-05T16:23:34.914Z,40.82
2023-03-05T16:28:35.124Z,48.84
2023-03-05T16:33:35.435Z,48.92
2023-03-05T16:38:35.666Z,73.66
2023-03-05T16:43:35.932Z,87.24000000000001
2023-03-05T16:48:36.156Z,78.1
2023-03-05T16:53:36.397Z,71.74000000000001
2023-03-05T16:58:37.654Z,79.58
2023-03-05T17:03:37.904Z,73.53999999999999
2023-03-05T17:08:38.146Z,104.9
2023-03-05T17:13:38.400Z,222.7
2023-03-05T17:18:38.832Z,181.1
2023-03-05T17:23:34.890Z,272.3
2023-03-05T17:28:35.172Z,259.99999999999994
2023-03-05T17:33:35.488Z,210.38000000000002
2023-03-05T17:38:36.693Z,202.64000000000001
2023-03-05T17:43:37.000Z,212.6
2023-03-05T17:48:33.248Z,107.3
2023-03-05T17:53:33.513Z,80.38
2023-03-05T17:58:33.827Z,69.22
2023-03-05T18:03:33.912Z,79.54
2023-03-05T18:08:34.305Z,153.3
2023-03-05T18:13:34.401Z,100.46000000000001
2023-03-05T18:18:34.664Z,67.34
2023-03-05T18:23:35.923Z,62.040000000000006
2023-03-05T18:28:37.174Z,77.47999999999999
2023-03-05T18:33:33.395Z,56.21999999999999
2023-03-05T18:38:33.777Z,44.839999999999996
2023-03-05T18:43:33.953Z,49.12
2023-03-05T18:48:30.159Z,49.14
2023-03-05T18:53:30.423Z,37.92
2023-03-05T18:58:30.664Z,47.56000000000001
2023-03-05T19:03:31.095Z,60.779999999999994
2023-03-05T19:08:31.180Z,81.30000000000001
2023-03-05T19:13:34.584Z,76.08
2023-03-05T19:18:39.966Z,79.8
2023-03-05T19:23:40.046Z,73.64000000000001
2023-03-05T19:28:40.266Z,47.28
2023-03-05T19:33:40.367Z,49.14
2023-03-05T19:38:40.613Z,39.040000000000006
2023-03-05T19:43:40.882Z,35.28
2023-03-05T19:48:37.103Z,25.3
2023-03-05T19:53:37.372Z,28.860000000000003
2023-03-05T19:58:33.701Z,23.9
2023-03-05T20:03:34.357Z,29.380000000000003
2023-03-05T20:08:35.132Z,32.88000000000001
2023-03-05T20:13:35.418Z,32.06
2023-03-05T20:18:35.669Z,27.080000000000002
2023-03-05T20:23:35.917Z,32.440000000000005
2023-03-05T20:28:36.140Z,27.82
2023-03-05T20:33:36.387Z,31.82
2023-03-05T20:38:37.692Z,33.4
2023-03-05T20:43:40.880Z,35.64
2023-03-05T20:48:42.136Z,23.880000000000003
2023-03-05T20:53:38.445Z,28.859999999999996
2023-03-05T20:58:40.660Z,23.3
2023-03-05T21:03:36.917Z,27.040000000000003
2023-03-05T21:08:33.158Z,28.859999999999996
2023-03-05T21:13:29.432Z,33.72
2023-03-05T21:18:25.682Z,34.36
2023-03-05T21:23:21.925Z,23.240000000000002
2023-03-05T21:28:18.363Z,27.18
2023-03-05T21:33:15.473Z,18.32
2023-03-05T21:38:15.718Z,17.660000000000004
2023-03-05T21:43:16.940Z,23.18
2023-03-05T21:48:17.196Z,21.82
2023-03-05T21:53:14.465Z,28.3
2023-03-05T21:58:10.684Z,26.139999999999997
2023-03-05T22:03:10.978Z,26.419999999999998
2023-03-05T22:08:07.245Z,25.7
2023-03-05T22:13:04.454Z,18.82
2023-03-05T22:18:00.845Z,17.419999999999998
2023-03-05T22:22:57.062Z,17.22
2023-03-05T22:27:53.277Z,17.08
2023-03-05T22:32:49.526Z,14.98
2023-03-05T22:37:50.810Z,18.259999999999998
2023-03-05T22:42:51.288Z,15.819999999999999
2023-03-05T22:47:48.279Z,14.320000000000002
2023-03-05T22:52:44.523Z,14.540000000000001
2023-03-05T22:57:40.793Z,40.6
2023-03-05T23:02:42.032Z,36.22
2023-03-05T23:07:43.286Z,22.439999999999998
2023-03-05T23:12:45.499Z,23.080000000000002
2023-03-05T23:17:45.757Z,31
2023-03-05T23:22:46.012Z,30.96
2023-03-05T23:27:45.294Z,31.540000000000003
2023-03-05T23:32:41.591Z,15.38
2023-03-05T23:37:37.790Z,32.18
2023-03-05T23:42:34.042Z,28.919999999999998
2023-03-05T23:47:30.303Z,22.139999999999997
2023-03-05T23:52:26.549Z,22.66
2023-03-05T23:57:22.844Z,21.74
